sensor_id;sensor_type;location;lat;lon;timestamp;P1;durP1;ratioP1;P2;durP2;ratioP2
21758;SDS011;11041;50.854;20.580;2022-10-16T00:01:15;22.83;;;18.20;;
21758;SDS011;11041;50.854;20.580;2022-10-16T00:03:44;26.98;;;18.85;;
21758;SDS011;11041;50.854;20.580;2022-10-16T00:06:13;29.33;;;18.38;;
21758;SDS011;11041;50.854;20.580;2022-10-16T00:08:42;23.80;;;18.13;;
21758;SDS011;11041;50.854;20.580;2022-10-16T00:11:19;23.45;;;17.92;;
21758;SDS011;11041;50.854;20.580;2022-10-16T00:13:53;22.35;;;17.52;;
21758;SDS011;11041;50.854;20.580;2022-10-16T00:16:23;25.70;;;18.83;;
21758;SDS011;11041;50.854;20.580;2022-10-16T00:18:51;28.17;;;18.63;;
21758;SDS011;11041;50.854;20.580;2022-10-16T00:21:19;27.33;;;18.45;;
21758;SDS011;11041;50.854;20.580;2022-10-16T00:24:02;29.00;;;19.23;;
21758;SDS011;11041;50.854;20.580;2022-10-16T00:26:33;25.38;;;19.45;;
21758;SDS011;11041;50.854;20.580;2022-10-16T00:29:02;25.73;;;19.33;;
21758;SDS011;11041;50.854;20.580;2022-10-16T00:31:29;29.58;;;20.23;;
21758;SDS011;11041;50.854;20.580;2022-10-16T00:33:56;27.42;;;19.70;;
21758;SDS011;11041;50.854;20.580;2022-10-16T00:36:24;24.58;;;18.88;;
21758;SDS011;11041;50.854;20.580;2022-10-16T00:38:52;25.73;;;19.08;;
21758;SDS011;11041;50.854;20.580;2022-10-16T00:41:25;29.83;;;19.90;;
21758;SDS011;11041;50.854;20.580;2022-10-16T00:43:55;26.48;;;18.70;;
21758;SDS011;11041;50.854;20.580;2022-10-16T00:49:08;26.00;;;19.20;;
21758;SDS011;11041;50.854;20.580;2022-10-16T00:51:51;26.00;;;19.58;;
21758;SDS011;11041;50.854;20.580;2022-10-16T00:54:20;25.42;;;18.95;;
21758;SDS011;11041;50.854;20.580;2022-10-16T00:56:59;23.83;;;19.42;;
21758;SDS011;11041;50.854;20.580;2022-10-16T00:59:33;23.75;;;18.92;;
21758;SDS011;11041;50.854;20.580;2022-10-16T01:02:07;27.63;;;18.30;;
21758;SDS011;11041;50.854;20.580;2022-10-16T01:04:44;26.88;;;18.55;;
21758;SDS011;11041;50.854;20.580;2022-10-16T01:07:18;25.00;;;17.88;;
21758;SDS011;11041;50.854;20.580;2022-10-16T01:10:06;25.38;;;19.05;;
21758;SDS011;11041;50.854;20.580;2022-10-16T01:12:59;27.65;;;18.42;;
21758;SDS011;11041;50.854;20.580;2022-10-16T01:18:52;24.52;;;18.48;;
21758;SDS011;11041;50.854;20.580;2022-10-16T01:21:44;26.60;;;19.00;;
21758;SDS011;11041;50.854;20.580;2022-10-16T01:30:21;23.45;;;18.95;;
21758;SDS011;11041;50.854;20.580;2022-10-16T01:33:02;25.23;;;18.90;;
21758;SDS011;11041;50.854;20.580;2022-10-16T01:36:02;22.88;;;19.35;;
21758;SDS011;11041;50.854;20.580;2022-10-16T01:38:38;26.20;;;19.58;;
21758;SDS011;11041;50.854;20.580;2022-10-16T01:41:11;25.25;;;18.85;;
21758;SDS011;11041;50.854;20.580;2022-10-16T01:46:59;26.23;;;19.05;;
21758;SDS011;11041;50.854;20.580;2022-10-16T01:49:27;24.27;;;19.08;;
21758;SDS011;11041;50.854;20.580;2022-10-16T01:51:59;27.83;;;19.45;;
21758;SDS011;11041;50.854;20.580;2022-10-16T01:54:32;24.75;;;18.88;;
21758;SDS011;11041;50.854;20.580;2022-10-16T01:57:04;25.90;;;19.00;;
21758;SDS011;11041;50.854;20.580;2022-10-16T01:59:33;23.27;;;18.70;;
21758;SDS011;11041;50.854;20.580;2022-10-16T02:02:09;27.70;;;19.10;;
21758;SDS011;11041;50.854;20.580;2022-10-16T02:04:39;22.00;;;17.92;;
21758;SDS011;11041;50.854;20.580;2022-10-16T02:07:15;26.95;;;19.83;;
21758;SDS011;11041;50.854;20.580;2022-10-16T02:09:42;22.27;;;17.48;;
21758;SDS011;11041;50.854;20.580;2022-10-16T02:14:51;23.42;;;17.73;;
21758;SDS011;11041;50.854;20.580;2022-10-16T02:17:18;25.27;;;18.67;;
21758;SDS011;11041;50.854;20.580;2022-10-16T02:19:47;24.90;;;17.58;;
21758;SDS011;11041;50.854;20.580;2022-10-16T02:22:22;24.55;;;18.40;;
21758;SDS011;11041;50.854;20.580;2022-10-16T02:25:10;24.27;;;18.27;;
21758;SDS011;11041;50.854;20.580;2022-10-16T02:30:44;20.45;;;17.15;;
21758;SDS011;11041;50.854;20.580;2022-10-16T02:33:25;21.35;;;17.67;;
21758;SDS011;11041;50.854;20.580;2022-10-16T02:35:56;21.08;;;17.05;;
21758;SDS011;11041;50.854;20.580;2022-10-16T02:38:24;21.58;;;16.80;;
21758;SDS011;11041;50.854;20.580;2022-10-16T02:40:52;23.23;;;15.95;;
21758;SDS011;11041;50.854;20.580;2022-10-16T02:43:20;22.75;;;16.98;;
21758;SDS011;11041;50.854;20.580;2022-10-16T02:45:46;23.77;;;17.23;;
21758;SDS011;11041;50.854;20.580;2022-10-16T02:48:13;22.75;;;16.80;;
21758;SDS011;11041;50.854;20.580;2022-10-16T02:50:40;18.48;;;15.55;;
21758;SDS011;11041;50.854;20.580;2022-10-16T02:53:06;24.10;;;16.35;;
21758;SDS011;11041;50.854;20.580;2022-10-16T02:55:33;23.73;;;15.90;;
21758;SDS011;11041;50.854;20.580;2022-10-16T02:58:00;21.00;;;16.48;;
21758;SDS011;11041;50.854;20.580;2022-10-16T03:00:26;24.17;;;17.42;;
21758;SDS011;11041;50.854;20.580;2022-10-16T03:02:54;17.75;;;15.48;;
21758;SDS011;11041;50.854;20.580;2022-10-16T03:05:20;21.88;;;16.73;;
21758;SDS011;11041;50.854;20.580;2022-10-16T03:07:47;21.08;;;15.77;;
21758;SDS011;11041;50.854;20.580;2022-10-16T03:10:13;23.15;;;17.02;;
21758;SDS011;11041;50.854;20.580;2022-10-16T03:12:40;21.55;;;17.00;;
21758;SDS011;11041;50.854;20.580;2022-10-16T03:15:06;21.50;;;16.63;;
21758;SDS011;11041;50.854;20.580;2022-10-16T03:17:35;22.92;;;16.15;;
21758;SDS011;11041;50.854;20.580;2022-10-16T03:20:02;20.25;;;15.88;;
21758;SDS011;11041;50.854;20.580;2022-10-16T03:22:29;22.73;;;15.93;;
21758;SDS011;11041;50.854;20.580;2022-10-16T03:24:56;20.08;;;16.25;;
21758;SDS011;11041;50.854;20.580;2022-10-16T03:27:22;19.75;;;15.15;;
21758;SDS011;11041;50.854;20.580;2022-10-16T03:29:48;21.13;;;16.08;;
21758;SDS011;11041;50.854;20.580;2022-10-16T03:32:15;22.52;;;16.17;;
21758;SDS011;11041;50.854;20.580;2022-10-16T03:34:41;21.58;;;16.33;;
21758;SDS011;11041;50.854;20.580;2022-10-16T03:37:08;22.50;;;15.90;;
21758;SDS011;11041;50.854;20.580;2022-10-16T03:39:34;20.95;;;16.13;;
21758;SDS011;11041;50.854;20.580;2022-10-16T03:42:01;22.45;;;16.80;;
21758;SDS011;11041;50.854;20.580;2022-10-16T03:44:28;22.08;;;16.25;;
21758;SDS011;11041;50.854;20.580;2022-10-16T03:46:54;19.08;;;15.00;;
21758;SDS011;11041;50.854;20.580;2022-10-16T03:49:21;18.83;;;15.02;;
21758;SDS011;11041;50.854;20.580;2022-10-16T03:51:47;22.55;;;15.65;;
21758;SDS011;11041;50.854;20.580;2022-10-16T03:54:14;21.05;;;14.73;;
21758;SDS011;11041;50.854;20.580;2022-10-16T03:56:40;17.92;;;14.80;;
21758;SDS011;11041;50.854;20.580;2022-10-16T03:59:07;19.10;;;14.75;;
21758;SDS011;11041;50.854;20.580;2022-10-16T04:01:34;18.98;;;15.07;;
21758;SDS011;11041;50.854;20.580;2022-10-16T04:04:00;21.15;;;14.77;;
21758;SDS011;11041;50.854;20.580;2022-10-16T04:06:27;16.35;;;14.10;;
21758;SDS011;11041;50.854;20.580;2022-10-16T04:08:53;19.08;;;15.45;;
21758;SDS011;11041;50.854;20.580;2022-10-16T04:11:20;18.52;;;13.95;;
21758;SDS011;11041;50.854;20.580;2022-10-16T04:13:46;20.15;;;14.35;;
21758;SDS011;11041;50.854;20.580;2022-10-16T04:16:13;18.40;;;14.60;;
21758;SDS011;11041;50.854;20.580;2022-10-16T04:18:39;17.02;;;14.32;;
21758;SDS011;11041;50.854;20.580;2022-10-16T04:21:06;18.98;;;14.30;;
21758;SDS011;11041;50.854;20.580;2022-10-16T04:23:33;23.65;;;14.57;;
21758;SDS011;11041;50.854;20.580;2022-10-16T04:26:00;26.15;;;15.20;;
21758;SDS011;11041;50.854;20.580;2022-10-16T04:28:27;20.83;;;15.07;;
21758;SDS011;11041;50.854;20.580;2022-10-16T04:30:54;17.45;;;13.50;;
21758;SDS011;11041;50.854;20.580;2022-10-16T04:33:20;20.02;;;13.90;;
21758;SDS011;11041;50.854;20.580;2022-10-16T04:35:47;17.45;;;14.68;;
21758;SDS011;11041;50.854;20.580;2022-10-16T04:38:14;16.85;;;14.77;;
21758;SDS011;11041;50.854;20.580;2022-10-16T04:40:41;18.60;;;15.60;;
21758;SDS011;11041;50.854;20.580;2022-10-16T04:43:08;21.45;;;13.77;;
21758;SDS011;11041;50.854;20.580;2022-10-16T04:45:35;18.95;;;14.25;;
21758;SDS011;11041;50.854;20.580;2022-10-16T04:48:01;17.70;;;14.13;;
21758;SDS011;11041;50.854;20.580;2022-10-16T04:50:28;19.23;;;14.43;;
21758;SDS011;11041;50.854;20.580;2022-10-16T04:52:54;24.02;;;14.70;;
21758;SDS011;11041;50.854;20.580;2022-10-16T04:55:21;19.85;;;15.43;;
21758;SDS011;11041;50.854;20.580;2022-10-16T04:57:47;20.13;;;15.20;;
21758;SDS011;11041;50.854;20.580;2022-10-16T05:00:14;19.20;;;14.70;;
21758;SDS011;11041;50.854;20.580;2022-10-16T05:02:40;15.63;;;13.65;;
21758;SDS011;11041;50.854;20.580;2022-10-16T05:05:07;21.08;;;14.38;;
21758;SDS011;11041;50.854;20.580;2022-10-16T05:07:34;18.02;;;13.23;;
21758;SDS011;11041;50.854;20.580;2022-10-16T05:10:00;17.17;;;13.25;;
21758;SDS011;11041;50.854;20.580;2022-10-16T05:12:27;18.75;;;13.68;;
21758;SDS011;11041;50.854;20.580;2022-10-16T05:14:54;17.50;;;13.85;;
21758;SDS011;11041;50.854;20.580;2022-10-16T05:17:24;18.40;;;13.80;;
21758;SDS011;11041;50.854;20.580;2022-10-16T05:19:52;19.48;;;13.40;;
21758;SDS011;11041;50.854;20.580;2022-10-16T05:22:18;18.38;;;14.10;;
21758;SDS011;11041;50.854;20.580;2022-10-16T05:24:44;17.02;;;13.57;;
21758;SDS011;11041;50.854;20.580;2022-10-16T05:27:11;16.45;;;12.93;;
21758;SDS011;11041;50.854;20.580;2022-10-16T05:29:45;21.02;;;14.50;;
21758;SDS011;11041;50.854;20.580;2022-10-16T05:32:13;18.15;;;13.75;;
21758;SDS011;11041;50.854;20.580;2022-10-16T05:34:42;17.25;;;13.55;;
21758;SDS011;11041;50.854;20.580;2022-10-16T05:37:09;19.15;;;12.98;;
21758;SDS011;11041;50.854;20.580;2022-10-16T05:39:40;16.67;;;13.05;;
21758;SDS011;11041;50.854;20.580;2022-10-16T05:42:07;18.00;;;14.25;;
21758;SDS011;11041;50.854;20.580;2022-10-16T05:44:33;17.92;;;14.23;;
21758;SDS011;11041;50.854;20.580;2022-10-16T05:47:00;18.75;;;15.00;;
21758;SDS011;11041;50.854;20.580;2022-10-16T05:49:26;16.27;;;14.30;;
21758;SDS011;11041;50.854;20.580;2022-10-16T05:51:53;18.50;;;14.63;;
21758;SDS011;11041;50.854;20.580;2022-10-16T05:54:19;18.88;;;14.40;;
21758;SDS011;11041;50.854;20.580;2022-10-16T05:56:46;18.33;;;14.55;;
21758;SDS011;11041;50.854;20.580;2022-10-16T05:59:12;18.02;;;14.05;;
21758;SDS011;11041;50.854;20.580;2022-10-16T06:01:39;19.58;;;14.95;;
21758;SDS011;11041;50.854;20.580;2022-10-16T06:04:31;20.20;;;15.60;;
21758;SDS011;11041;50.854;20.580;2022-10-16T06:07:23;20.23;;;14.40;;
21758;SDS011;11041;50.854;20.580;2022-10-16T06:10:14;17.20;;;14.10;;
21758;SDS011;11041;50.854;20.580;2022-10-16T06:13:06;16.92;;;15.07;;
21758;SDS011;11041;50.854;20.580;2022-10-16T06:15:57;19.58;;;15.80;;
21758;SDS011;11041;50.854;20.580;2022-10-16T06:18:50;18.52;;;15.10;;
21758;SDS011;11041;50.854;20.580;2022-10-16T06:21:45;17.48;;;14.60;;
21758;SDS011;11041;50.854;20.580;2022-10-16T06:24:37;16.55;;;13.55;;
21758;SDS011;11041;50.854;20.580;2022-10-16T06:27:28;20.50;;;14.02;;
21758;SDS011;11041;50.854;20.580;2022-10-16T06:30:18;17.35;;;13.70;;
21758;SDS011;11041;50.854;20.580;2022-10-16T06:33:10;16.25;;;13.38;;
21758;SDS011;11041;50.854;20.580;2022-10-16T06:36:04;22.95;;;13.70;;
21758;SDS011;11041;50.854;20.580;2022-10-16T06:39:02;15.90;;;13.27;;
21758;SDS011;11041;50.854;20.580;2022-10-16T06:59:13;20.08;;;13.40;;
21758;SDS011;11041;50.854;20.580;2022-10-16T07:01:39;19.30;;;13.10;;
21758;SDS011;11041;50.854;20.580;2022-10-16T07:04:06;18.63;;;13.68;;
21758;SDS011;11041;50.854;20.580;2022-10-16T07:06:33;14.38;;;12.48;;
21758;SDS011;11041;50.854;20.580;2022-10-16T07:09:01;19.05;;;13.32;;
21758;SDS011;11041;50.854;20.580;2022-10-16T07:11:30;16.30;;;13.65;;
21758;SDS011;11041;50.854;20.580;2022-10-16T07:13:57;16.35;;;13.57;;
21758;SDS011;11041;50.854;20.580;2022-10-16T07:16:28;16.23;;;12.63;;
21758;SDS011;11041;50.854;20.580;2022-10-16T07:18:58;17.90;;;14.30;;
21758;SDS011;11041;50.854;20.580;2022-10-16T07:21:30;16.98;;;13.63;;
21758;SDS011;11041;50.854;20.580;2022-10-16T07:24:03;14.38;;;12.35;;
21758;SDS011;11041;50.854;20.580;2022-10-16T07:26:33;16.80;;;12.52;;
21758;SDS011;11041;50.854;20.580;2022-10-16T07:29:02;16.00;;;12.55;;
21758;SDS011;11041;50.854;20.580;2022-10-16T07:31:29;13.18;;;11.80;;
21758;SDS011;11041;50.854;20.580;2022-10-16T07:33:57;14.43;;;11.18;;
21758;SDS011;11041;50.854;20.580;2022-10-16T07:36:25;14.25;;;12.75;;
21758;SDS011;11041;50.854;20.580;2022-10-16T07:38:53;14.10;;;11.65;;
21758;SDS011;11041;50.854;20.580;2022-10-16T07:41:19;15.15;;;11.07;;
21758;SDS011;11041;50.854;20.580;2022-10-16T07:43:50;14.27;;;12.02;;
21758;SDS011;11041;50.854;20.580;2022-10-16T07:46:19;16.70;;;12.85;;
21758;SDS011;11041;50.854;20.580;2022-10-16T07:48:49;13.77;;;12.30;;
21758;SDS011;11041;50.854;20.580;2022-10-16T07:51:17;15.60;;;11.80;;
21758;SDS011;11041;50.854;20.580;2022-10-16T07:53:46;15.52;;;11.60;;
21758;SDS011;11041;50.854;20.580;2022-10-16T07:56:14;13.40;;;11.02;;
21758;SDS011;11041;50.854;20.580;2022-10-16T07:58:42;14.88;;;12.10;;
21758;SDS011;11041;50.854;20.580;2022-10-16T08:01:11;15.15;;;11.60;;
21758;SDS011;11041;50.854;20.580;2022-10-16T08:03:42;14.30;;;11.32;;
21758;SDS011;11041;50.854;20.580;2022-10-16T08:06:17;12.27;;;10.95;;
21758;SDS011;11041;50.854;20.580;2022-10-16T08:08:46;13.90;;;10.68;;
21758;SDS011;11041;50.854;20.580;2022-10-16T08:11:13;14.73;;;10.73;;
21758;SDS011;11041;50.854;20.580;2022-10-16T08:13:40;14.18;;;11.07;;
21758;SDS011;11041;50.854;20.580;2022-10-16T08:16:08;16.35;;;11.10;;
21758;SDS011;11041;50.854;20.580;2022-10-16T08:18:36;14.20;;;12.00;;
21758;SDS011;11041;50.854;20.580;2022-10-16T08:21:04;15.00;;;11.32;;
21758;SDS011;11041;50.854;20.580;2022-10-16T08:23:33;13.15;;;11.75;;
21758;SDS011;11041;50.854;20.580;2022-10-16T08:26:04;14.40;;;10.77;;
21758;SDS011;11041;50.854;20.580;2022-10-16T08:28:33;16.23;;;10.68;;
21758;SDS011;11041;50.854;20.580;2022-10-16T08:31:08;13.95;;;11.57;;
21758;SDS011;11041;50.854;20.580;2022-10-16T08:33:41;13.77;;;11.27;;
21758;SDS011;11041;50.854;20.580;2022-10-16T08:36:12;12.95;;;10.32;;
21758;SDS011;11041;50.854;20.580;2022-10-16T08:38:40;12.65;;;11.27;;
21758;SDS011;11041;50.854;20.580;2022-10-16T08:47:18;13.57;;;10.85;;
21758;SDS011;11041;50.854;20.580;2022-10-16T08:50:02;14.18;;;10.68;;
21758;SDS011;11041;50.854;20.580;2022-10-16T08:52:39;16.10;;;10.52;;
21758;SDS011;11041;50.854;20.580;2022-10-16T08:55:31;12.57;;;10.85;;
21758;SDS011;11041;50.854;20.580;2022-10-16T08:58:13;12.07;;;10.05;;
21758;SDS011;11041;50.854;20.580;2022-10-16T09:00:47;13.45;;;10.25;;
21758;SDS011;11041;50.854;20.580;2022-10-16T09:09:24;10.57;;;9.13;;
21758;SDS011;11041;50.854;20.580;2022-10-16T09:12:15;13.50;;;9.80;;
21758;SDS011;11041;50.854;20.580;2022-10-16T09:15:03;10.98;;;9.13;;
21758;SDS011;11041;50.854;20.580;2022-10-16T09:17:49;11.65;;;9.77;;
21758;SDS011;11041;50.854;20.580;2022-10-16T09:23:36;12.75;;;9.00;;
21758;SDS011;11041;50.854;20.580;2022-10-16T09:26:03;17.73;;;9.82;;
21758;SDS011;11041;50.854;20.580;2022-10-16T09:28:36;11.13;;;8.90;;
21758;SDS011;11041;50.854;20.580;2022-10-16T09:31:03;10.65;;;8.95;;
21758;SDS011;11041;50.854;20.580;2022-10-16T09:33:32;11.85;;;9.77;;
21758;SDS011;11041;50.854;20.580;2022-10-16T09:36:04;10.93;;;8.68;;
21758;SDS011;11041;50.854;20.580;2022-10-16T09:38:34;13.82;;;9.27;;
21758;SDS011;11041;50.854;20.580;2022-10-16T09:41:03;11.10;;;8.57;;
21758;SDS011;11041;50.854;20.580;2022-10-16T09:43:52;12.50;;;9.77;;
21758;SDS011;11041;50.854;20.580;2022-10-16T09:46:24;10.52;;;9.40;;
21758;SDS011;11041;50.854;20.580;2022-10-16T09:48:58;10.43;;;9.32;;
21758;SDS011;11041;50.854;20.580;2022-10-16T09:51:34;11.82;;;8.80;;
21758;SDS011;11041;50.854;20.580;2022-10-16T09:56:36;13.13;;;9.70;;
21758;SDS011;11041;50.854;20.580;2022-10-16T11:07:17;11.02;;;8.70;;
21758;SDS011;11041;50.854;20.580;2022-10-16T11:09:55;10.57;;;8.30;;
21758;SDS011;11041;50.854;20.580;2022-10-16T11:12:49;12.40;;;8.38;;
21758;SDS011;11041;50.854;20.580;2022-10-16T11:21:04;13.35;;;9.00;;
21758;SDS011;11041;50.854;20.580;2022-10-16T11:26:21;11.77;;;8.70;;
21758;SDS011;11041;50.854;20.580;2022-10-16T11:28:55;9.35;;;8.18;;
21758;SDS011;11041;50.854;20.580;2022-10-16T11:41:54;14.00;;;8.77;;
21758;SDS011;11041;50.854;20.580;2022-10-16T11:50:30;6.20;;;5.45;;
21758;SDS011;11041;50.854;20.580;2022-10-16T11:56:00;9.48;;;7.68;;
21758;SDS011;11041;50.854;20.580;2022-10-16T11:58:28;13.93;;;7.72;;
21758;SDS011;11041;50.854;20.580;2022-10-16T12:04:14;12.80;;;7.18;;
21758;SDS011;11041;50.854;20.580;2022-10-16T12:07:11;10.00;;;7.15;;
21758;SDS011;11041;50.854;20.580;2022-10-16T12:09:58;11.63;;;7.57;;
21758;SDS011;11041;50.854;20.580;2022-10-16T12:12:45;9.50;;;7.57;;
21758;SDS011;11041;50.854;20.580;2022-10-16T12:15:28;9.65;;;7.82;;
21758;SDS011;11041;50.854;20.580;2022-10-16T12:18:02;13.23;;;8.23;;
21758;SDS011;11041;50.854;20.580;2022-10-16T12:20:32;9.85;;;7.53;;
21758;SDS011;11041;50.854;20.580;2022-10-16T12:23:03;10.40;;;7.82;;
21758;SDS011;11041;50.854;20.580;2022-10-16T12:30:55;10.10;;;7.85;;
21758;SDS011;11041;50.854;20.580;2022-10-16T12:33:39;9.38;;;7.40;;
21758;SDS011;11041;50.854;20.580;2022-10-16T12:36:34;9.57;;;7.97;;
21758;SDS011;11041;50.854;20.580;2022-10-16T12:39:02;11.90;;;8.15;;
21758;SDS011;11041;50.854;20.580;2022-10-16T12:41:30;9.40;;;7.90;;
21758;SDS011;11041;50.854;20.580;2022-10-16T12:44:01;8.13;;;7.32;;
21758;SDS011;11041;50.854;20.580;2022-10-16T12:49:05;9.10;;;8.18;;
21758;SDS011;11041;50.854;20.580;2022-10-16T12:51:38;9.73;;;8.35;;
21758;SDS011;11041;50.854;20.580;2022-10-16T12:54:14;10.38;;;8.30;;
21758;SDS011;11041;50.854;20.580;2022-10-16T12:56:46;11.23;;;8.52;;
21758;SDS011;11041;50.854;20.580;2022-10-16T13:12:17;10.02;;;8.82;;
21758;SDS011;11041;50.854;20.580;2022-10-16T13:15:55;12.23;;;8.57;;
21758;SDS011;11041;50.854;20.580;2022-10-16T13:21:17;9.15;;;7.80;;
21758;SDS011;11041;50.854;20.580;2022-10-16T13:29:23;10.95;;;7.90;;
21758;SDS011;11041;50.854;20.580;2022-10-16T13:31:57;10.27;;;8.85;;
21758;SDS011;11041;50.854;20.580;2022-10-16T13:34:27;9.90;;;8.05;;
21758;SDS011;11041;50.854;20.580;2022-10-16T13:36:54;10.32;;;8.20;;
21758;SDS011;11041;50.854;20.580;2022-10-16T13:39:29;13.57;;;8.23;;
21758;SDS011;11041;50.854;20.580;2022-10-16T13:42:06;11.23;;;8.43;;
21758;SDS011;11041;50.854;20.580;2022-10-16T13:45:38;9.57;;;8.07;;
21758;SDS011;11041;50.854;20.580;2022-10-16T13:48:01;12.88;;;8.60;;
21758;SDS011;11041;50.854;20.580;2022-10-16T13:50:31;11.02;;;8.55;;
21758;SDS011;11041;50.854;20.580;2022-10-16T13:53:09;10.57;;;8.60;;
21758;SDS011;11041;50.854;20.580;2022-10-16T13:55:40;9.90;;;8.57;;
21758;SDS011;11041;50.854;20.580;2022-10-16T13:58:07;16.15;;;11.95;;
21758;SDS011;11041;50.854;20.580;2022-10-16T14:00:58;13.40;;;11.43;;
21758;SDS011;11041;50.854;20.580;2022-10-16T14:03:32;13.50;;;9.45;;
21758;SDS011;11041;50.854;20.580;2022-10-16T14:06:04;12.85;;;9.32;;
21758;SDS011;11041;50.854;20.580;2022-10-16T14:08:55;12.15;;;9.48;;
21758;SDS011;11041;50.854;20.580;2022-10-16T14:11:26;14.00;;;9.55;;
21758;SDS011;11041;50.854;20.580;2022-10-16T14:13:53;9.35;;;8.27;;
21758;SDS011;11041;50.854;20.580;2022-10-16T14:16:27;10.38;;;9.27;;
21758;SDS011;11041;50.854;20.580;2022-10-16T14:18:58;15.05;;;11.15;;
21758;SDS011;11041;50.854;20.580;2022-10-16T14:21:36;28.17;;;21.10;;
21758;SDS011;11041;50.854;20.580;2022-10-16T14:24:11;11.38;;;9.20;;
21758;SDS011;11041;50.854;20.580;2022-10-16T14:26:47;19.10;;;14.93;;
21758;SDS011;11041;50.854;20.580;2022-10-16T14:29:17;10.27;;;8.80;;
21758;SDS011;11041;50.854;20.580;2022-10-16T14:31:58;15.43;;;10.05;;
21758;SDS011;11041;50.854;20.580;2022-10-16T14:34:32;9.45;;;8.02;;
21758;SDS011;11041;50.854;20.580;2022-10-16T14:39:54;17.30;;;12.95;;
21758;SDS011;11041;50.854;20.580;2022-10-16T14:42:23;15.05;;;9.68;;
21758;SDS011;11041;50.854;20.580;2022-10-16T14:44:52;16.27;;;10.70;;
21758;SDS011;11041;50.854;20.580;2022-10-16T14:47:21;16.50;;;9.75;;
21758;SDS011;11041;50.854;20.580;2022-10-16T14:49:52;13.40;;;10.30;;
21758;SDS011;11041;50.854;20.580;2022-10-16T14:52:24;15.40;;;9.95;;
21758;SDS011;11041;50.854;20.580;2022-10-16T14:54:51;15.52;;;11.23;;
21758;SDS011;11041;50.854;20.580;2022-10-16T14:57:24;15.10;;;10.65;;
21758;SDS011;11041;50.854;20.580;2022-10-16T14:59:57;16.02;;;10.70;;
21758;SDS011;11041;50.854;20.580;2022-10-16T15:07:51;13.25;;;10.02;;
21758;SDS011;11041;50.854;20.580;2022-10-16T15:10:21;17.35;;;13.32;;
21758;SDS011;11041;50.854;20.580;2022-10-16T15:12:51;28.25;;;20.52;;
21758;SDS011;11041;50.854;20.580;2022-10-16T15:17:57;17.70;;;11.48;;
21758;SDS011;11041;50.854;20.580;2022-10-16T15:20:27;17.25;;;14.30;;
21758;SDS011;11041;50.854;20.580;2022-10-16T15:23:03;14.82;;;13.23;;
21758;SDS011;11041;50.854;20.580;2022-10-16T15:25:40;14.38;;;12.10;;
21758;SDS011;11041;50.854;20.580;2022-10-16T15:28:12;22.35;;;18.58;;
21758;SDS011;11041;50.854;20.580;2022-10-16T15:30:41;20.00;;;16.98;;
21758;SDS011;11041;50.854;20.580;2022-10-16T15:33:17;19.40;;;12.00;;
21758;SDS011;11041;50.854;20.580;2022-10-16T15:35:48;12.77;;;10.70;;
21758;SDS011;11041;50.854;20.580;2022-10-16T15:38:17;11.85;;;9.82;;
21758;SDS011;11041;50.854;20.580;2022-10-16T15:40:47;10.93;;;9.63;;
21758;SDS011;11041;50.854;20.580;2022-10-16T15:43:15;16.13;;;10.68;;
21758;SDS011;11041;50.854;20.580;2022-10-16T15:45:42;15.45;;;10.93;;
21758;SDS011;11041;50.854;20.580;2022-10-16T15:48:11;19.33;;;16.92;;
21758;SDS011;11041;50.854;20.580;2022-10-16T15:50:40;18.23;;;16.25;;
21758;SDS011;11041;50.854;20.580;2022-10-16T15:53:07;29.98;;;21.65;;
21758;SDS011;11041;50.854;20.580;2022-10-16T15:55:34;19.48;;;13.20;;
21758;SDS011;11041;50.854;20.580;2022-10-16T15:58:03;17.60;;;11.45;;
21758;SDS011;11041;50.854;20.580;2022-10-16T16:00:30;23.38;;;19.73;;
21758;SDS011;11041;50.854;20.580;2022-10-16T16:02:57;23.45;;;19.30;;
21758;SDS011;11041;50.854;20.580;2022-10-16T16:05:24;26.52;;;19.38;;
21758;SDS011;11041;50.854;20.580;2022-10-16T16:07:51;25.80;;;16.95;;
21758;SDS011;11041;50.854;20.580;2022-10-16T16:10:18;33.15;;;25.55;;
21758;SDS011;11041;50.854;20.580;2022-10-16T16:12:47;40.08;;;32.25;;
21758;SDS011;11041;50.854;20.580;2022-10-16T16:15:19;47.97;;;32.28;;
21758;SDS011;11041;50.854;20.580;2022-10-16T16:17:47;55.25;;;37.75;;
21758;SDS011;11041;50.854;20.580;2022-10-16T16:20:14;39.95;;;24.17;;
21758;SDS011;11041;50.854;20.580;2022-10-16T16:22:41;49.42;;;35.90;;
21758;SDS011;11041;50.854;20.580;2022-10-16T16:25:09;51.10;;;38.63;;
21758;SDS011;11041;50.854;20.580;2022-10-16T16:27:35;31.15;;;23.77;;
21758;SDS011;11041;50.854;20.580;2022-10-16T16:30:05;100.35;;;68.40;;
21758;SDS011;11041;50.854;20.580;2022-10-16T16:32:33;57.75;;;37.17;;
21758;SDS011;11041;50.854;20.580;2022-10-16T16:35:00;29.60;;;21.30;;
21758;SDS011;11041;50.854;20.580;2022-10-16T16:37:28;23.33;;;16.70;;
21758;SDS011;11041;50.854;20.580;2022-10-16T16:39:55;19.55;;;14.30;;
21758;SDS011;11041;50.854;20.580;2022-10-16T16:42:24;22.15;;;14.68;;
21758;SDS011;11041;50.854;20.580;2022-10-16T16:44:52;48.10;;;31.48;;
21758;SDS011;11041;50.854;20.580;2022-10-16T16:47:19;25.00;;;16.25;;
21758;SDS011;11041;50.854;20.580;2022-10-16T16:49:46;30.65;;;21.48;;
21758;SDS011;11041;50.854;20.580;2022-10-16T16:52:13;58.42;;;40.40;;
21758;SDS011;11041;50.854;20.580;2022-10-16T16:54:40;126.07;;;87.50;;
21758;SDS011;11041;50.854;20.580;2022-10-16T16:57:07;98.15;;;56.78;;
21758;SDS011;11041;50.854;20.580;2022-10-16T16:59:34;283.63;;;154.52;;
21758;SDS011;11041;50.854;20.580;2022-10-16T17:02:01;109.95;;;60.00;;
21758;SDS011;11041;50.854;20.580;2022-10-16T17:04:29;51.55;;;34.00;;
21758;SDS011;11041;50.854;20.580;2022-10-16T17:06:58;34.08;;;24.33;;
21758;SDS011;11041;50.854;20.580;2022-10-16T17:09:28;15.68;;;12.00;;
21758;SDS011;11041;50.854;20.580;2022-10-16T17:11:57;13.77;;;11.20;;
21758;SDS011;11041;50.854;20.580;2022-10-16T17:14:25;17.83;;;13.38;;
21758;SDS011;11041;50.854;20.580;2022-10-16T17:16:52;17.15;;;13.65;;
21758;SDS011;11041;50.854;20.580;2022-10-16T17:19:21;19.83;;;11.45;;
21758;SDS011;11041;50.854;20.580;2022-10-16T17:21:48;15.13;;;11.43;;
21758;SDS011;11041;50.854;20.580;2022-10-16T17:24:22;16.15;;;11.80;;
21758;SDS011;11041;50.854;20.580;2022-10-16T17:26:49;18.20;;;12.63;;
21758;SDS011;11041;50.854;20.580;2022-10-16T17:29:16;23.00;;;16.13;;
21758;SDS011;11041;50.854;20.580;2022-10-16T17:31:44;22.40;;;15.77;;
21758;SDS011;11041;50.854;20.580;2022-10-16T17:34:14;21.38;;;15.02;;
21758;SDS011;11041;50.854;20.580;2022-10-16T17:36:41;27.63;;;18.23;;
21758;SDS011;11041;50.854;20.580;2022-10-16T17:39:09;26.70;;;19.25;;
21758;SDS011;11041;50.854;20.580;2022-10-16T17:41:38;26.63;;;18.95;;
21758;SDS011;11041;50.854;20.580;2022-10-16T17:44:05;33.22;;;22.90;;
21758;SDS011;11041;50.854;20.580;2022-10-16T17:46:33;31.25;;;22.23;;
21758;SDS011;11041;50.854;20.580;2022-10-16T17:49:00;30.95;;;18.48;;
21758;SDS011;11041;50.854;20.580;2022-10-16T17:51:28;31.60;;;23.02;;
21758;SDS011;11041;50.854;20.580;2022-10-16T17:53:58;41.60;;;30.15;;